createdAt,value
2022-08-18T00:02:54.462Z,8.23
2022-08-18T00:06:03.283Z,6.30
2022-08-18T00:09:07.827Z,5.75
2022-08-18T00:12:40.747Z,6.60
2022-08-18T00:15:48.881Z,6.00
2022-08-18T00:18:52.028Z,6.88
2022-08-18T00:21:54.487Z,6.05
2022-08-18T00:24:58.370Z,6.25
2022-08-18T00:28:00.446Z,6.45
2022-08-18T00:31:02.656Z,6.70
2022-08-18T00:34:04.794Z,7.20
2022-08-18T00:37:07.076Z,6.88
2022-08-18T00:40:13.306Z,7.00
2022-08-18T00:43:27.100Z,6.78
2022-08-18T00:46:32.525Z,5.53
2022-08-18T00:49:40.512Z,8.02
2022-08-18T00:52:52.437Z,6.07
2022-08-18T00:55:59.400Z,7.22
2022-08-18T00:59:17.567Z,8.05
2022-08-18T01:02:30.524Z,8.82
2022-08-18T01:05:37.796Z,7.40
2022-08-18T01:08:40.158Z,6.65
2022-08-18T01:11:43.016Z,6.50
2022-08-18T01:14:46.760Z,6.28
2022-08-18T01:17:51.664Z,7.30
2022-08-18T01:21:04.802Z,6.85
2022-08-18T01:24:10.249Z,7.35
2022-08-18T01:27:16.599Z,7.40
2022-08-18T01:30:18.947Z,7.78
2022-08-18T01:33:20.987Z,8.57
2022-08-18T01:36:29.009Z,7.20
2022-08-18T01:41:21.186Z,7.75
2022-08-18T01:42:53.221Z,6.85
2022-08-18T01:48:57.962Z,7.38
2022-08-18T01:52:00.121Z,7.28
2022-08-18T01:55:02.733Z,7.55
2022-08-18T01:58:06.704Z,8.07
2022-08-18T02:01:08.855Z,7.80
2022-08-18T02:04:33.854Z,7.63
2022-08-18T02:07:36.438Z,8.75
2022-08-18T02:10:39.629Z,6.45
2022-08-18T02:13:41.982Z,9.05
2022-08-18T02:16:44.008Z,8.73
2022-08-18T02:22:49.622Z,8.32
2022-08-18T02:25:52.031Z,8.68
2022-08-18T02:28:54.219Z,8.20
2022-08-18T02:34:58.246Z,9.30
2022-08-18T02:38:02.005Z,8.40
2022-08-18T02:41:07.736Z,7.80
2022-08-18T02:44:10.493Z,8.48
2022-08-18T02:47:12.607Z,9.52
2022-08-18T02:53:17.141Z,7.43
2022-08-18T02:56:40.003Z,9.45
2022-08-18T02:59:47.358Z,7.88
2022-08-18T03:02:51.844Z,8.07
2022-08-18T03:05:53.852Z,7.93
2022-08-18T03:11:59.013Z,9.23
2022-08-18T03:15:01.289Z,8.32
2022-08-18T03:18:03.291Z,9.90
2022-08-18T03:24:10.759Z,9.52
2022-08-18T03:27:12.956Z,9.90
2022-08-18T03:30:15.035Z,8.40
2022-08-18T03:36:24.917Z,7.88
2022-08-18T03:39:27.616Z,8.60
2022-08-18T03:42:29.821Z,8.48
2022-08-18T03:48:34.146Z,7.70
2022-08-18T03:51:36.355Z,8.20
2022-08-18T03:54:40.390Z,8.05
2022-08-18T03:57:44.002Z,9.25
2022-08-18T04:00:46.103Z,8.68
2022-08-18T04:03:52.591Z,8.23
2022-08-18T04:07:00.710Z,8.32
2022-08-18T04:13:05.127Z,8.85
2022-08-18T04:16:07.900Z,7.68
2022-08-18T04:19:11.002Z,9.15
2022-08-18T04:22:17.657Z,7.40
2022-08-18T04:25:21.682Z,8.98
2022-08-18T04:28:23.920Z,9.05
2022-08-18T04:31:25.962Z,8.98
2022-08-18T04:37:30.006Z,9.10
2022-08-18T04:43:34.209Z,7.38
2022-08-18T04:46:42.263Z,8.30
2022-08-18T04:52:46.859Z,7.55
2022-08-18T04:58:55.726Z,8.57
2022-08-18T05:02:00.763Z,8.65
2022-08-18T05:05:03.783Z,7.68
2022-08-18T05:08:06.324Z,8.25
2022-08-18T05:11:08.953Z,8.77
2022-08-18T05:14:11.664Z,12.45
2022-08-18T05:17:15.544Z,9.18
2022-08-18T05:20:17.543Z,9.90
2022-08-18T05:23:20.909Z,10.55
2022-08-18T05:26:25.251Z,10.57
2022-08-18T05:29:27.213Z,7.50
2022-08-18T05:32:48.454Z,9.15
2022-08-18T05:36:00.042Z,9.50
2022-08-18T05:39:08.124Z,8.63
2022-08-18T05:45:19.682Z,8.25
2022-08-18T05:48:22.809Z,8.25
2022-08-18T05:51:46.030Z,8.25
2022-08-18T05:54:52.256Z,9.57
2022-08-18T05:58:04.868Z,8.57
2022-08-18T06:01:15.776Z,9.82
2022-08-18T06:04:30.765Z,8.38
2022-08-18T06:07:42.183Z,8.05
2022-08-18T06:10:48.366Z,7.75
2022-08-18T06:13:51.688Z,8.13
2022-08-18T06:17:20.199Z,8.32
2022-08-18T06:20:31.677Z,8.48
2022-08-18T06:24:20.720Z,7.63
2022-08-18T06:27:37.309Z,10.07
2022-08-18T06:30:57.883Z,9.85
2022-08-18T06:34:06.203Z,11.30
2022-08-18T06:37:11.229Z,8.70
2022-08-18T06:40:13.305Z,8.65
2022-08-18T06:43:17.017Z,7.97
2022-08-18T06:46:23.521Z,9.80
2022-08-18T06:49:37.017Z,7.78
2022-08-18T06:52:51.527Z,8.18
2022-08-18T06:55:53.433Z,9.32
2022-08-18T07:02:45.177Z,9.32
2022-08-18T07:06:08.134Z,8.95
2022-08-18T07:09:24.303Z,9.60
2022-08-18T07:12:32.743Z,8.85
2022-08-18T07:15:35.111Z,9.57
2022-08-18T07:18:39.704Z,10.27
2022-08-18T07:21:42.819Z,11.23
2022-08-18T07:24:53.520Z,10.48
2022-08-18T07:27:55.917Z,9.68
2022-08-18T07:31:19.371Z,9.50
2022-08-18T07:34:28.642Z,9.68
2022-08-18T07:37:30.504Z,10.02
2022-08-18T07:40:40.913Z,10.70
2022-08-18T07:44:16.949Z,8.73
2022-08-18T07:47:29.525Z,10.63
2022-08-18T07:50:58.755Z,8.77
2022-08-18T07:54:02.680Z,9.90
2022-08-18T08:00:54.884Z,10.18
2022-08-18T08:04:04.384Z,12.43
2022-08-18T08:07:24.324Z,9.82
2022-08-18T08:10:47.171Z,10.45
2022-08-18T08:13:56.446Z,10.85
2022-08-18T08:17:19.975Z,9.05
2022-08-18T08:20:32.947Z,9.77
2022-08-18T08:23:53.418Z,9.10
2022-08-18T08:27:17.911Z,8.68
2022-08-18T08:30:23.681Z,10.93
2022-08-18T08:34:09.854Z,9.98
2022-08-18T08:37:30.371Z,11.55
2022-08-18T08:40:49.259Z,9.88
2022-08-18T08:44:10.220Z,10.07
2022-08-18T08:47:23.521Z,10.32
2022-08-18T08:50:28.630Z,11.30
2022-08-18T08:53:38.281Z,11.70
2022-08-18T08:56:47.147Z,11.98
2022-08-18T08:59:51.306Z,10.73
2022-08-18T09:03:33.071Z,11.10
2022-08-18T09:07:01.070Z,12.88
2022-08-18T09:10:35.839Z,12.35
2022-08-18T09:14:11.669Z,11.98
2022-08-18T09:17:45.272Z,13.68
2022-08-18T09:20:58.195Z,14.35
2022-08-18T09:24:15.060Z,14.38
2022-08-18T09:27:37.009Z,13.73
2022-08-18T09:31:03.809Z,12.07
2022-08-18T09:34:32.498Z,12.68
2022-08-18T09:37:50.395Z,15.25
2022-08-18T09:41:03.210Z,12.93
2022-08-18T09:44:11.944Z,15.27
2022-08-18T09:47:31.967Z,13.35
2022-08-18T09:50:55.889Z,15.13
2022-08-18T09:54:13.704Z,14.27
2022-08-18T09:57:22.555Z,15.73
2022-08-18T10:00:30.795Z,15.40
2022-08-18T10:03:35.477Z,16.55
2022-08-18T10:09:53.524Z,15.05
2022-08-18T10:13:09.771Z,16.52
2022-08-18T10:16:22.881Z,15.82
2022-08-18T10:20:03.413Z,17.42
2022-08-18T10:23:07.833Z,15.98
2022-08-18T10:26:31.891Z,15.70
2022-08-18T10:29:45.306Z,17.88
2022-08-18T10:32:52.141Z,19.55
2022-08-18T10:36:00.949Z,19.55
2022-08-18T10:39:13.594Z,17.75
2022-08-18T10:42:31.156Z,18.45
2022-08-18T10:45:54.782Z,19.08
2022-08-18T10:49:12.612Z,20.88
2022-08-18T11:03:51.697Z,23.08
2022-08-18T11:07:03.050Z,22.25
2022-08-18T11:10:58.133Z,23.20
2022-08-18T11:14:14.254Z,23.63
2022-08-18T11:17:30.426Z,22.70
2022-08-18T11:20:33.352Z,23.27
2022-08-18T11:23:35.506Z,21.48
2022-08-18T11:26:52.486Z,21.05
2022-08-18T11:30:00.330Z,22.70
2022-08-18T11:33:03.570Z,23.10
2022-08-18T11:36:06.476Z,20.35
2022-08-18T11:39:10.611Z,22.05
2022-08-18T11:42:25.134Z,19.05
2022-08-18T11:45:33.683Z,19.05
2022-08-18T11:48:46.478Z,17.65
2022-08-18T11:55:31.605Z,23.08
2022-08-18T11:58:50.573Z,20.75
2022-08-18T12:01:54.810Z,20.98
2022-08-18T12:05:03.510Z,22.08
2022-08-18T12:08:41.862Z,17.98
2022-08-18T12:11:58.842Z,20.45
2022-08-18T12:15:26.239Z,23.33
2022-08-18T12:18:38.972Z,22.13
2022-08-18T12:21:46.679Z,19.17
2022-08-18T12:24:58.475Z,18.63
2022-08-18T12:28:00.440Z,22.83
2022-08-18T12:31:03.085Z,19.98
2022-08-18T12:34:24.966Z,19.50
2022-08-18T12:40:51.950Z,19.85
2022-08-18T12:47:26.880Z,18.90
2022-08-18T12:50:39.144Z,20.92
2022-08-18T12:57:52.164Z,15.40
2022-08-18T13:00:44.697Z,16.63
2022-08-18T13:04:03.546Z,20.65
2022-08-18T13:07:13.658Z,15.82
2022-08-18T13:10:21.628Z,15.80
2022-08-18T13:17:01.022Z,11.55
2022-08-18T13:20:10.992Z,14.90
2022-08-18T13:23:15.604Z,14.05
2022-08-18T13:26:30.314Z,12.80
2022-08-18T13:29:32.335Z,13.35
2022-08-18T13:32:47.252Z,15.45
2022-08-18T13:35:57.736Z,14.02
2022-08-18T13:39:00.767Z,15.40
2022-08-18T13:42:26.634Z,13.95
2022-08-18T13:45:26.208Z,14.75
2022-08-18T13:48:28.356Z,16.63
2022-08-18T13:51:31.542Z,14.45
2022-08-18T13:54:35.534Z,14.88
2022-08-18T13:57:39.552Z,15.35
2022-08-18T14:00:42.781Z,14.43
2022-08-18T14:03:47.216Z,12.38
2022-08-18T14:06:57.000Z,13.63
2022-08-18T14:10:04.565Z,13.38
2022-08-18T14:13:20.335Z,12.88
2022-08-18T14:16:26.763Z,13.93
2022-08-18T14:19:29.408Z,14.20
2022-08-18T14:22:32.021Z,12.73
2022-08-18T14:25:33.979Z,13.10
2022-08-18T14:28:36.132Z,13.43
2022-08-18T14:31:40.920Z,16.17
2022-08-18T14:34:50.708Z,15.20
2022-08-18T14:37:53.450Z,13.55
2022-08-18T14:41:02.125Z,14.48
2022-08-18T14:44:12.209Z,14.10
2022-08-18T14:47:17.472Z,13.48
2022-08-18T14:50:26.974Z,13.48
2022-08-18T14:53:32.236Z,13.45
2022-08-18T14:56:37.753Z,15.48
2022-08-18T14:59:41.181Z,12.75
2022-08-18T15:02:45.362Z,14.50
2022-08-18T15:05:48.243Z,13.15
2022-08-18T15:08:50.243Z,13.05
2022-08-18T15:11:52.385Z,12.35
2022-08-18T15:14:58.957Z,12.15
2022-08-18T15:18:04.448Z,12.52
2022-08-18T15:21:35.797Z,11.63
2022-08-18T15:24:39.782Z,11.02
2022-08-18T15:27:42.312Z,10.70
2022-08-18T15:30:51.004Z,12.85
2022-08-18T15:33:53.507Z,12.45
2022-08-18T15:36:55.838Z,11.73
2022-08-18T15:40:02.580Z,12.13
2022-08-18T15:43:10.345Z,11.65
2022-08-18T15:46:16.678Z,11.93
2022-08-18T15:49:19.196Z,13.80
2022-08-18T15:52:24.390Z,11.80
2022-08-18T15:55:35.791Z,12.05
2022-08-18T15:58:38.161Z,13.52
2022-08-18T16:01:42.948Z,13.95
2022-08-18T16:04:46.482Z,13.02
2022-08-18T16:07:48.888Z,14.20
2022-08-18T16:10:52.152Z,14.70
2022-08-18T16:13:54.098Z,13.07
2022-08-18T16:16:58.060Z,13.40
2022-08-18T16:20:00.623Z,12.93
2022-08-18T16:23:02.771Z,12.23
2022-08-18T16:26:05.982Z,13.43
2022-08-18T16:29:08.148Z,13.77
2022-08-18T16:32:16.439Z,13.18
2022-08-18T16:35:20.176Z,11.45
2022-08-18T16:38:23.101Z,9.73
2022-08-18T16:41:25.649Z,10.80
2022-08-18T16:44:27.763Z,11.38
2022-08-18T16:47:33.139Z,11.13
2022-08-18T16:50:36.693Z,12.50
2022-08-18T16:53:39.949Z,12.90
2022-08-18T16:56:42.630Z,12.32
2022-08-18T16:59:44.589Z,12.27
2022-08-18T17:02:46.638Z,13.38
2022-08-18T17:05:48.751Z,13.20
2022-08-18T17:08:51.349Z,13.05
2022-08-18T17:11:53.871Z,12.40
2022-08-18T17:14:56.324Z,11.27
2022-08-18T17:17:58.531Z,12.13
2022-08-18T17:21:09.560Z,11.38
2022-08-18T17:24:14.185Z,12.02
2022-08-18T17:27:30.748Z,11.50
2022-08-18T17:33:45.862Z,11.07
2022-08-18T17:36:53.474Z,12.02
2022-08-18T17:43:02.128Z,12.00
2022-08-18T17:46:17.121Z,12.98
2022-08-18T17:49:39.623Z,11.50
2022-08-18T17:52:53.400Z,12.85
2022-08-18T17:56:17.629Z,10.82
2022-08-18T17:59:42.792Z,13.32
2022-08-18T18:02:49.740Z,15.13
2022-08-18T18:05:58.688Z,13.45
2022-08-18T18:09:08.819Z,11.15
2022-08-18T18:12:24.175Z,12.80
2022-08-18T18:15:32.466Z,12.82
2022-08-18T18:18:36.305Z,11.27
2022-08-18T18:22:00.458Z,11.13
2022-08-18T18:25:02.980Z,11.73
2022-08-18T18:28:05.073Z,13.20
2022-08-18T18:31:26.600Z,12.10
2022-08-18T18:34:36.545Z,12.75
2022-08-18T18:38:23.855Z,11.93
2022-08-18T18:41:28.228Z,12.77
2022-08-18T18:44:30.892Z,13.43
2022-08-18T18:47:48.275Z,13.20
2022-08-18T18:51:10.500Z,12.68
2022-08-18T18:54:29.571Z,12.65
2022-08-18T18:57:40.621Z,14.35
2022-08-18T19:00:56.768Z,11.05
2022-08-18T19:04:08.062Z,11.65
2022-08-18T19:07:24.032Z,14.23
2022-08-18T19:10:39.357Z,13.98
2022-08-18T19:13:54.232Z,13.52
2022-08-18T19:17:21.929Z,14.95
2022-08-18T19:20:29.107Z,14.15
2022-08-18T19:23:44.899Z,13.75
2022-08-18T19:26:54.823Z,12.80
2022-08-18T19:30:02.520Z,13.88
2022-08-18T19:33:07.591Z,12.77
2022-08-18T19:36:33.287Z,15.10
2022-08-18T19:39:46.461Z,14.98
2022-08-18T19:43:06.403Z,14.10
2022-08-18T19:46:22.968Z,14.63
2022-08-18T19:49:51.101Z,15.05
2022-08-18T19:53:12.122Z,17.02
2022-08-18T19:56:52.847Z,17.58
2022-08-18T20:00:03.348Z,16.40
2022-08-18T20:03:33.386Z,15.50
2022-08-18T20:06:47.640Z,15.52
2022-08-18T20:10:25.195Z,17.90
2022-08-18T20:13:30.094Z,17.08
2022-08-18T20:16:43.341Z,17.30
2022-08-18T20:19:55.464Z,17.85
2022-08-18T20:23:01.326Z,16.90
2022-08-18T20:26:03.594Z,19.00
2022-08-18T20:29:17.751Z,17.05
2022-08-18T20:32:32.729Z,17.42
2022-08-18T20:35:58.493Z,19.23
2022-08-18T20:39:00.657Z,17.88
2022-08-18T20:42:05.310Z,17.17
2022-08-18T20:45:16.776Z,17.27
2022-08-18T20:48:33.462Z,18.10
2022-08-18T20:51:52.215Z,18.27
2022-08-18T20:55:20.425Z,19.02
2022-08-18T20:58:37.490Z,17.75
2022-08-18T21:01:40.005Z,19.92
2022-08-18T21:04:46.910Z,18.48
2022-08-18T21:08:01.180Z,18.75
2022-08-18T21:11:10.031Z,17.92
2022-08-18T21:14:13.087Z,18.38
2022-08-18T21:17:15.133Z,19.60
2022-08-18T21:20:18.121Z,20.90
2022-08-18T21:23:33.953Z,21.40
2022-08-18T21:26:38.407Z,19.92
2022-08-18T21:29:49.078Z,19.75
2022-08-18T21:32:51.804Z,20.05
2022-08-18T21:35:53.869Z,16.95
2022-08-18T21:42:16.790Z,19.27
2022-08-18T21:45:22.361Z,20.50
2022-08-18T21:48:27.530Z,19.25
2022-08-18T21:51:32.833Z,21.63
2022-08-18T21:54:35.133Z,21.85
2022-08-18T21:57:58.845Z,21.63
2022-08-18T22:01:29.616Z,20.50
2022-08-18T22:04:37.356Z,20.63
2022-08-18T22:07:48.564Z,21.42
2022-08-18T22:11:38.373Z,21.17
2022-08-18T22:14:55.101Z,21.02
2022-08-18T22:18:05.376Z,20.02
2022-08-18T22:21:32.303Z,22.63
2022-08-18T22:24:37.868Z,21.38
2022-08-18T22:27:40.188Z,22.95
2022-08-18T22:30:42.182Z,19.45
2022-08-18T22:33:45.013Z,20.90
2022-08-18T22:36:57.839Z,20.17
2022-08-18T22:40:08.456Z,23.23
2022-08-18T22:43:10.522Z,21.45
2022-08-18T22:49:26.422Z,20.23
2022-08-18T22:52:36.127Z,19.95
2022-08-18T22:55:38.093Z,21.58
2022-08-18T22:58:40.200Z,22.52
2022-08-18T23:01:47.431Z,20.25
2022-08-18T23:04:49.522Z,20.95
2022-08-18T23:07:51.527Z,18.35
2022-08-18T23:10:53.697Z,23.65
2022-08-18T23:13:58.940Z,20.40
2022-08-18T23:17:02.634Z,18.88
2022-08-18T23:20:06.096Z,21.48
2022-08-18T23:23:08.120Z,21.73
2022-08-18T23:26:10.631Z,20.67
2022-08-18T23:29:14.986Z,22.05
2022-08-18T23:32:16.986Z,21.30
2022-08-18T23:35:19.124Z,21.17
2022-08-18T23:38:21.717Z,21.80
2022-08-18T23:41:34.970Z,21.20
2022-08-18T23:44:40.408Z,21.27
2022-08-18T23:47:43.134Z,20.02
2022-08-18T23:50:46.445Z,22.42
2022-08-18T23:53:48.379Z,20.45
2022-08-18T23:59:52.416Z,22.30
